• Join FlightAware (Why Join?)
  • Login
  • US Flag 
02:46AM EDT


 

Airport Tracker/Info


-or-


 

Live Flight TrackerFlight Track Log ✈ AMX402 ✈ 15-May-2013 ✈ MMPR / PVR - MMMX / MEX

Flight Track Log - Related Links

Times and Time Zones

All times are in EDT time to prevent confusion due to time zone crossing. See the AMX402 flight status page for this flight to view local times or setup timezone preferences in your user account.

Time Position Orientation Groundspeed Altitude Reporting Facility
EDT Latitude Longitude Course Direction KTS MPH feet Rate Location/Type
08:20AM 20.4300 -104.4790 110° East 486 559 32,100  Level FlightAware
08:20AM 20.3960 -104.3800 110° East 496 571 33,100 1,740 Climbing FlightAware
08:21AM 20.3750 -104.3040 106° East 501 577 34,300 1,920 Climbing FlightAware
08:22AM 20.3870 -104.1810 84° East 505 581 35,900 2,220 Climbing FlightAware
08:23AM 20.4040 -104.0750 80° East 491 565 37,900 2,640 Climbing FlightAware
08:23AM 20.4200 -103.9720 81° East 472 543 39,700 2,160 Climbing FlightAware
08:24AM 20.4350 -103.8720 81° East 462 532 41,000 900 Climbing FlightAware
08:25AM 20.4500 -103.7800 80° East 475 547 41,000  Level FlightAware
08:25AM 20.4650 -103.6860 80° East 480 552 41,000  Level FlightAware
08:26AM 20.4810 -103.5820 81° East 481 554 41,000  Level FlightAware
08:27AM 20.4940 -103.5010 80° East 481 554 41,000  Level FlightAware
08:27AM 20.5090 -103.4030 81° East 482 555 41,000  Level FlightAware
08:28AM 20.5230 -103.3100 81° East 477 549 41,000  Level FlightAware
08:29AM 20.5270 -103.1950 88° East 475 547 41,000  Level FlightAware
08:30AM 20.5320 -103.0910 87° East 475 547 41,000  Level FlightAware
08:30AM 20.5350 -102.9970 88° East 475 547 41,000  Level FlightAware
08:31AM 20.5380 -102.9040 88° East 475 547 41,000  Level FlightAware
08:32AM 20.5420 -102.8040 88° East 474 545 41,000  Level FlightAware
08:32AM 20.5460 -102.7080 87° East 474 545 41,000  Level FlightAware
08:33AM 20.5500 -102.6050 88° East 474 545 41,000  Level FlightAware
08:34AM 20.5530 -102.5140 88° East 474 545 41,000  Level FlightAware
08:34AM 20.5560 -102.4150 88° East 475 547 41,000  Level FlightAware
08:35AM 20.5600 -102.3170 87° East 475 547 41,000  Level FlightAware
08:36AM 20.5630 -102.2160 88° East 475 547 41,000  Level FlightAware
08:37AM 20.5670 -102.1050 88° East 475 547 41,000  Level FlightAware
08:37AM 20.5700 -102.0120 88° East 476 548 41,000  Level FlightAware
08:38AM 20.5720 -101.9170 89° East 476 548 41,000  Level FlightAware
08:39AM 20.5760 -101.8110 88° East 476 548 41,000  Level FlightAware
08:39AM 20.5780 -101.7160 89° East 476 548 41,000  Level FlightAware
08:40AM 20.5810 -101.6210 88° East 476 548 41,000  Level FlightAware
08:41AM 20.5840 -101.5210 88° East 475 547 41,000  Level FlightAware
08:41AM 20.5870 -101.4260 88° East 475 547 41,000  Level FlightAware
08:42AM 20.5900 -101.3200 88° East 474 545 41,000  Level FlightAware
08:43AM 20.5920 -101.2260 89° East 473 544 41,000  Level FlightAware
08:43AM 20.5950 -101.1360 88° East 473 544 41,000  Level FlightAware
08:44AM 20.5930 -101.0280 91° East 467 537 41,000  Level FlightAware
08:45AM 20.5740 -100.9300 102° East 466 536 41,000  Level FlightAware
08:46AM 20.5570 -100.8390 101° East 468 539 41,000  Level FlightAware
08:46AM 20.5400 -100.7480 101° East 469 540 41,000  Level FlightAware
08:47AM 20.5200 -100.6430 101° East 471 542 41,000  Level FlightAware
08:48AM 20.5030 -100.5540 102° East 471 542 41,000  Level FlightAware
08:48AM 20.4860 -100.4640 101° East 472 543 41,000 -240 Level FlightAware
08:49AM 20.4660 -100.3600 102° East 467 537 40,700 -1,560 Descending FlightAware
08:50AM 20.4480 -100.2700 102° East 469 540 38,800 -2,100 Descending FlightAware
08:51AM 20.4280 -100.1630 101° East 472 543 37,600 -3,120 Descending FlightAware
08:51AM 20.4040 -100.0440 102° East 486 559 33,600 -3,900 Descending FlightAware
08:52AM 20.3870 -99.9550 102° East 479 551 31,800 -2,700 Descending FlightAware
08:53AM 20.3640 -99.8630 105° East 464 534 30,000 -2,280 Descending FlightAware
08:54AM 20.3070 -99.7770 125° Southeast 440 506 28,600 -1,200 Descending FlightAware
08:54AM 20.2680 -99.7240 128° Southeast 439 505 28,400 -180 Descending FlightAware
08:55AM 20.2150 -99.6510 128° Southeast 439 505 28,400 -2,100 Level FlightAware
08:56AM 20.1570 -99.5760 129° Southeast 402 463 25,300 -2,940 Descending FlightAware
08:56AM 20.1010 -99.5020 129° Southeast 377 434 24,000 -1,500 Descending FlightAware
08:57AM 20.0460 -99.4290 129° Southeast 366 421 22,800 -1,500 Descending FlightAware
08:58AM 20.0050 -99.3740 128° Southeast 360 414 21,800 -1,440 Descending FlightAware
08:59AM 19.9480 -99.2990 129° Southeast 334 384 20,600 -1,200 Descending FlightAware
08:59AM 19.9260 -99.2580 120° Southeast 317 365 20,100 -480 Descending FlightAware
09:00AM 19.9150 -99.2120 104° East 317 365 20,100 -1,020 Level FlightAware
09:01AM 19.9120 -99.1380 92° East 271 312 18,700 -1,620 Descending FlightAware
09:01AM 19.9050 -99.1300 133° Southeast 268 308 18,500 -1,200 Descending FlightAware
09:01AM 19.8890 -99.1180 145° Southeast 263 303 18,200 -1,080 Descending FlightAware
09:02AM 19.8540 -99.0970 151° Southeast 257 296 17,600 -480 Descending FlightAware
09:03AM 19.8130 -99.0720 150° Southeast 257 296 17,600  Level FlightAware
09:03AM 19.7690 -99.0450 150° Southeast 257 296 17,600  Level FlightAware
09:04AM 19.7340 -99.0240 151° Southeast 257 296 17,600  Level FlightAware
09:05AM 19.6990 -99.0020 149° Southeast 257 296 17,600 -2,640 Level FlightAware
09:05AM 19.6600 -99.1190 251° West 213 245 13,900 -3,120 Descending FlightAware
09:06AM 19.6310 -99.1500 225° Southwest 211 243 13,200 -900 Descending FlightAware
09:07AM 19.6010 -99.1810 224° Southwest 222 255 12,700 -900 Descending FlightAware
09:08AM 19.5710 -99.2120 224° Southwest 218 251 12,000 -1,140 Descending FlightAware
09:08AM 19.5580 -99.2240 221° Southwest 217 250 11,700 -1,200 Descending FlightAware
09:08AM 19.5490 -99.2260 192° South 217 250 11,500 -1,020 Descending FlightAware
09:09AM 19.5070 -99.2150 166° South 204 235 10,800 -900 Descending FlightAware
09:09AM 19.4710 -99.2060 167° South 193 222 10,300 -780 Descending FlightAware
09:10AM 19.4460 -99.1990 165° South 183 211 9,900 -840 Descending FlightAware
09:10AM 19.4220 -99.1930 167° South 180 207 9,500 -900 Descending FlightAware
09:11AM 19.4000 -99.1880 168° South 184 212 9,100 -1,080 Descending FlightAware
09:11AM 19.3900 -99.1830 155° Southeast 183 211 8,800 -840 Descending FlightAware
09:11AM 19.3850 -99.1710 114° Southeast 165 190 8,700 -780 Descending FlightAware
09:12AM 19.3900 -99.1520 74° East 156 180 8,300 -900 Descending FlightAware
09:12AM 19.4000 -99.1340 59° Northeast 147 169 7,900 -720 Descending FlightAware
09:13AM 19.4110 -99.1150 58° Northeast 144 166 7,600 -480 Descending FlightAware
09:13AM 19.4240 -99.0920 59° Northeast 144 166 7,400 -300 Descending FlightAware
09:16AM 19.4363 -99.0721 57° Northeast  Level Estimated
09:17AM 19.4363 -99.0721 43° Northeast  Level Estimated
09:18AM 19.4363 -99.0721 43° Northeast  Level Estimated
09:19AM 19.4363 -99.0721 43° Northeast  Level Estimated
09:20AM 19.4363 -99.0721 43° Northeast  Level Estimated
09:21AM 19.4363 -99.0721 43° Northeast  Level Estimated
09:22AM 19.4363 -99.0721 43° Northeast  Level Estimated
09:23AM 19.4363 -99.0721 43° Northeast  Level Estimated
09:24AM 19.4363 -99.0721 43° Northeast  Level Estimated
09:25AM 19.4363 -99.0721 43° Northeast  Level Estimated
09:26AM 19.4363 -99.0721 43° Northeast  Level Estimated
09:27AM 19.4363 -99.0721 43° Northeast  Level Estimated
09:28AM 19.4363 -99.0721 43° Northeast  Level Estimated
09:29AM 19.4363 -99.0721 43° Northeast  Level Estimated
09:30AM 19.4363 -99.0721 43° Northeast  Level Estimated